createdAt,value
2023-03-21T04:10:17.478Z,10.73
2023-03-21T04:13:20.496Z,10.60
2023-03-21T04:16:23.633Z,10.55
2023-03-21T04:19:27.061Z,10.61
2023-03-21T04:22:29.331Z,10.67
2023-03-21T04:25:38.649Z,10.60
2023-03-21T04:28:42.598Z,10.56
2023-03-21T04:31:46.250Z,10.47
2023-03-21T04:34:49.928Z,10.34
2023-03-21T04:37:52.862Z,10.28
2023-03-21T04:40:55.301Z,10.19
2023-03-21T04:43:57.797Z,10.03
2023-03-21T04:47:00.224Z,10.00
2023-03-21T04:50:03.518Z,9.93
2023-03-21T04:53:05.756Z,9.84
2023-03-21T04:56:08.620Z,9.69
2023-03-21T04:59:14.057Z,9.58
2023-03-21T05:02:16.551Z,9.53
2023-03-21T05:05:18.728Z,9.51
2023-03-21T05:08:21.273Z,9.53
2023-03-21T05:11:23.431Z,9.54
2023-03-21T05:14:27.303Z,9.54
2023-03-21T05:17:30.554Z,9.57
2023-03-21T05:20:33.299Z,9.66
2023-03-21T05:23:42.063Z,9.69
2023-03-21T05:26:50.232Z,9.77
2023-03-21T05:29:52.776Z,10.09
2023-03-21T05:32:55.401Z,10.58
2023-03-21T05:35:58.387Z,11.13
2023-03-21T05:39:04.965Z,11.56
2023-03-21T05:42:09.966Z,11.59
2023-03-21T05:45:13.218Z,11.83
2023-03-21T05:48:15.869Z,12.33
2023-03-21T05:51:23.333Z,13.06
2023-03-21T05:54:25.858Z,13.28
2023-03-21T05:57:28.854Z,12.64
2023-03-21T06:00:31.794Z,12.41
2023-03-21T06:03:35.417Z,12.16
2023-03-21T06:06:37.750Z,12.07
2023-03-21T06:09:40.242Z,12.07
2023-03-21T06:12:43.234Z,12.22
2023-03-21T06:15:47.157Z,12.26
2023-03-21T06:18:50.410Z,12.45
2023-03-21T06:21:53.280Z,12.52
2023-03-21T06:24:55.572Z,12.84
2023-03-21T06:27:58.096Z,13.00
2023-03-21T06:31:00.808Z,14.63
2023-03-21T06:34:03.682Z,17.49
2023-03-21T06:37:05.846Z,17.99
2023-03-21T06:40:09.590Z,19.14
2023-03-21T06:43:11.804Z,18.80
2023-03-21T06:46:14.871Z,16.55
2023-03-21T06:49:18.783Z,15.81
2023-03-21T06:52:21.250Z,15.33
2023-03-21T06:55:26.830Z,15.37
2023-03-21T06:58:29.698Z,15.71
2023-03-21T07:01:32.035Z,15.81
2023-03-21T07:04:36.154Z,16.83
2023-03-21T07:07:39.909Z,19.75
2023-03-21T07:10:45.435Z,20.20
2023-03-21T07:13:48.763Z,20.96
2023-03-21T07:16:51.539Z,21.69
2023-03-21T07:19:54.007Z,21.00
2023-03-21T07:22:57.238Z,22.22
2023-03-21T07:26:01.883Z,23.90
2023-03-21T07:29:04.787Z,25.12
2023-03-21T07:32:07.793Z,23.56
2023-03-21T07:35:16.483Z,22.94
2023-03-21T07:38:20.383Z,23.41
2023-03-21T07:41:22.971Z,21.23
2023-03-21T07:44:25.659Z,20.66
2023-03-21T07:47:30.222Z,20.35
2023-03-21T07:50:33.295Z,20.37
2023-03-21T07:53:36.743Z,22.05
2023-03-21T07:56:39.178Z,21.62
2023-03-21T07:59:41.692Z,22.20
2023-03-21T08:02:43.893Z,22.86
2023-03-21T08:05:49.495Z,22.12
2023-03-21T08:08:51.877Z,21.71
2023-03-21T08:11:54.457Z,21.19
2023-03-21T08:14:58.383Z,21.24
2023-03-21T08:18:02.027Z,22.81
2023-03-21T08:21:04.426Z,23.51
2023-03-21T08:24:07.138Z,21.44
2023-03-21T08:27:09.292Z,19.68
2023-03-21T08:30:13.395Z,19.68
2023-03-21T08:33:17.273Z,20.22
2023-03-21T08:36:21.071Z,20.02
2023-03-21T08:39:24.879Z,19.81
2023-03-21T08:42:27.950Z,20.01
2023-03-21T08:45:30.575Z,19.53
2023-03-21T08:48:33.211Z,20.42
2023-03-21T08:51:37.596Z,20.31
2023-03-21T08:54:41.801Z,20.40
2023-03-21T08:57:45.190Z,20.58
2023-03-21T09:00:47.792Z,21.30
2023-03-21T09:03:49.928Z,23.70
2023-03-21T09:06:52.375Z,26.28
2023-03-21T09:10:15.022Z,27.18
2023-03-21T09:13:17.016Z,26.23
2023-03-21T09:16:19.238Z,25.61
2023-03-21T09:19:21.813Z,24.26
2023-03-21T09:22:25.418Z,23.51
2023-03-21T09:25:30.953Z,23.33
2023-03-21T09:28:35.036Z,22.12
2023-03-21T09:31:37.595Z,22.63
2023-03-21T09:34:41.254Z,23.06
2023-03-21T09:37:43.900Z,22.38
2023-03-21T09:41:05.184Z,22.56
2023-03-21T09:44:32.505Z,23.00
2023-03-21T09:47:53.178Z,23.92
2023-03-21T09:50:56.568Z,27.29
2023-03-21T09:54:07.451Z,29.45
2023-03-21T09:57:31.747Z,27.41
2023-03-21T10:00:40.177Z,26.01
2023-03-21T10:03:43.906Z,25.81
2023-03-21T10:06:57.823Z,24.58
2023-03-21T10:10:04.546Z,23.64
2023-03-21T10:13:14.056Z,22.52
2023-03-21T10:16:32.456Z,28.02
2023-03-21T10:19:34.746Z,31.91
2023-03-21T10:22:39.579Z,32.70
2023-03-21T10:25:47.194Z,29.31
2023-03-21T10:28:53.310Z,28.24
2023-03-21T10:31:56.806Z,29.39
2023-03-21T10:35:01.132Z,29.70
2023-03-21T10:38:05.577Z,30.96
2023-03-21T10:41:08.050Z,30.37
2023-03-21T10:44:17.307Z,32.60
2023-03-21T10:47:31.322Z,34.55
2023-03-21T10:50:35.729Z,34.44
2023-03-21T10:53:41.272Z,35.64
2023-03-21T10:56:57.056Z,34.89
2023-03-21T11:00:02.413Z,35.78
2023-03-21T11:03:05.444Z,36.43
2023-03-21T11:06:27.715Z,34.73
2023-03-21T11:09:54.286Z,35.69
2023-03-21T11:13:01.391Z,37.55
2023-03-21T11:16:32.067Z,38.50
2023-03-21T11:19:36.437Z,38.34
2023-03-21T11:22:43.494Z,38.23
2023-03-21T11:25:49.305Z,36.12
2023-03-21T11:28:51.944Z,35.24
2023-03-21T11:31:59.821Z,27.39
2023-03-21T11:35:15.493Z,23.68
2023-03-21T11:38:26.397Z,26.67
2023-03-21T11:41:31.848Z,27.02
2023-03-21T11:44:43.417Z,23.66
2023-03-21T11:47:47.121Z,28.58
2023-03-21T11:50:56.442Z,29.96
2023-03-21T11:54:28.229Z,27.10
2023-03-21T11:58:05.300Z,21.87
2023-03-21T12:01:36.496Z,20.70
2023-03-21T12:05:02.274Z,20.85
2023-03-21T12:08:22.524Z,20.53
2023-03-21T12:11:39.628Z,19.18
2023-03-21T12:15:08.980Z,18.66
2023-03-21T12:18:11.485Z,19.24
2023-03-21T12:21:35.824Z,19.92
2023-03-21T12:24:53.643Z,19.85
2023-03-21T12:28:03.685Z,19.65
2023-03-21T12:31:10.934Z,19.30
2023-03-21T12:34:38.133Z,19.23
2023-03-21T12:38:23.420Z,18.43
2023-03-21T12:41:33.666Z,18.09
2023-03-21T12:44:39.931Z,18.20
2023-03-21T12:47:48.855Z,17.84
2023-03-21T12:50:54.837Z,17.75
2023-03-21T12:54:03.926Z,17.55
2023-03-21T12:57:13.550Z,17.39
2023-03-21T13:00:18.578Z,17.50
2023-03-21T13:03:37.428Z,17.43
2023-03-21T13:06:43.373Z,17.19
2023-03-21T13:09:46.751Z,17.62
2023-03-21T13:13:04.270Z,18.45
2023-03-21T13:16:20.164Z,19.30
2023-03-21T13:19:31.125Z,19.35
2023-03-21T13:22:33.771Z,18.83
2023-03-21T13:25:43.364Z,18.01
2023-03-21T13:28:48.487Z,17.66
2023-03-21T13:31:54.596Z,17.66
2023-03-21T13:35:18.329Z,17.42
2023-03-21T13:38:25.439Z,17.64
2023-03-21T13:41:30.768Z,17.75
2023-03-21T13:44:50.175Z,17.51
2023-03-21T13:48:20.468Z,17.02
2023-03-21T13:51:45.412Z,16.92
2023-03-21T13:54:56.059Z,16.99
2023-03-21T13:57:58.179Z,17.30
2023-03-21T14:01:03.822Z,17.87
2023-03-21T14:04:14.179Z,17.91
2023-03-21T14:07:32.214Z,17.61
2023-03-21T14:10:40.785Z,17.60
2023-03-21T14:13:50.937Z,17.38
2023-03-21T14:16:54.134Z,17.47
2023-03-21T14:20:10.769Z,17.73
2023-03-21T14:23:17.159Z,17.32
2023-03-21T14:26:19.677Z,17.33
2023-03-21T14:29:34.253Z,17.46
2023-03-21T14:32:36.575Z,17.43
2023-03-21T14:35:41.849Z,17.31
2023-03-21T14:38:55.285Z,17.38
2023-03-21T14:42:04.484Z,17.37
2023-03-21T14:45:38.971Z,17.46
2023-03-21T14:48:41.431Z,17.31
2023-03-21T14:51:45.546Z,17.20
2023-03-21T14:54:49.395Z,17.09
2023-03-21T14:57:51.905Z,16.93
2023-03-21T15:00:57.852Z,16.89
2023-03-21T15:04:04.467Z,16.99
2023-03-21T15:07:08.111Z,17.02
2023-03-21T15:10:18.093Z,16.79
2023-03-21T15:13:25.194Z,16.60
2023-03-21T15:16:27.988Z,16.61
2023-03-21T15:19:36.254Z,16.57
2023-03-21T15:22:42.198Z,16.57
2023-03-21T15:25:45.279Z,16.36
2023-03-21T15:28:50.455Z,16.31
2023-03-21T15:31:53.448Z,16.07
2023-03-21T15:35:04.331Z,15.93
2023-03-21T15:38:07.155Z,15.84
2023-03-21T15:41:21.346Z,15.73
2023-03-21T15:44:23.839Z,15.55
2023-03-21T15:47:39.845Z,15.50
2023-03-21T15:50:57.664Z,15.46
2023-03-21T15:54:02.101Z,15.25
2023-03-21T15:57:19.828Z,15.14
2023-03-21T16:00:49.814Z,15.08
2023-03-21T16:03:57.890Z,15.03
2023-03-21T16:07:03.475Z,14.94
2023-03-21T16:10:29.561Z,14.79
2023-03-21T16:13:31.715Z,14.74
2023-03-21T16:16:34.502Z,14.64
2023-03-21T16:19:36.647Z,14.49
